Flight Track Log - Related Links

Times and Time Zones

All times are in EDT time to prevent confusion due to time zone crossing. See the EMD21 flight status page for this flight to view local times or setup timezone preferences in your user account.

Time Position Orientation Groundspeed Altitude Reporting Facility
EDT Latitude Longitude Course Direction KTS MPH feet Rate Location/Type
12:29PM 35.0019 -95.8736 318° Northwest 156 180 6,400  Level Kansas City Center
12:30PM 35.0217 -95.8950 318° Northwest 197 227 6,900 944 Climbing Fort Worth Center
12:31PM 35.0658 -95.9169 338° Northwest 175 201 7,800 950 Climbing Fort Worth Center
12:32PM 35.1097 -95.9389 338° Northwest 170 196 8,800 1,050 Climbing Fort Worth Center
12:33PM 35.1517 -95.9636 334° Northwest 170 196 9,900 1,000 Climbing Fort Worth Center
12:34PM 35.1939 -95.9883 334° Northwest 165 190 10,800 950 Climbing Fort Worth Center
12:35PM 35.2400 -96.0106 339° North 165 190 11,800 1,150 Climbing Fort Worth Center
12:36PM 35.2839 -96.0353 335° Northwest 171 197 13,100 1,200 Climbing Fort Worth Center
12:37PM 35.3239 -96.0600 333° Northwest 171 197 14,200 1,050 Climbing Fort Worth Center
12:38PM 35.3658 -96.0797 339° North 166 191 15,200 873 Climbing Fort Worth Center
12:39PM 35.3994 -96.0961 338° Northwest 164 189 15,800 491 Climbing Kansas City Center
12:40PM 35.4406 -96.1225 332° Northwest 164 189 16,100 145 Climbing Kansas City Center
12:41PM 35.4917 -96.1464 339° North 185 213 16,100 -48 Level Kansas City Center
12:42PM 35.5550 -96.1806 336° Northwest 202 232 16,000 -49 Descending Kansas City Center
12:43PM 35.6044 -96.2119 333° Northwest 202 232 16,000 -49 Level Kansas City Center
12:44PM 35.6581 -96.2397 337° Northwest 206 237 15,900  Descending Kansas City Center
12:45PM 35.7100 -96.2694 335° Northwest 207 238 16,000  Climbing Kansas City Center
12:46PM 35.7614 -96.3031 332° Northwest 208 239 15,900  Descending Kansas City Center
12:47PM 35.8186 -96.3317 338° Northwest 210 242 16,000  Climbing Kansas City Center
12:48PM 35.8711 -96.3633 334° Northwest 209 241 15,900  Descending Kansas City Center
12:49PM 35.9222 -96.3967 332° Northwest 208 239 16,000 98 Climbing Kansas City Center
12:50PM 35.9817 -96.4264 338° Northwest 206 237 16,100 32 Climbing Kansas City Center
12:52PM 36.0867 -96.4925 333° Northwest 203 234 16,100  Level Kansas City Center
12:53PM 36.1400 -96.5197 338° Northwest 205 236 16,100  Level Kansas City Center
12:54PM 36.1911 -96.5514 333° Northwest 205 236 16,100  Level Kansas City Center
12:55PM 36.2453 -96.5819 336° Northwest 210 242 16,100  Level Kansas City Center
12:56PM 36.2981 -96.6125 335° Northwest 210 242 16,100  Level Kansas City Center
12:57PM 36.3597 -96.6542 331° Northwest 209 241 16,100  Level Kansas City Center
12:58PM 36.4139 -96.6811 338° Northwest 208 239 16,100  Level Kansas City Center
12:59PM 36.4650 -96.7128 334° Northwest 205 236 16,100  Level Kansas City Center
01:00PM 36.5147 -96.7456 332° Northwest 203 234 16,100  Level Kansas City Center
01:01PM 36.5689 -96.7761 336° Northwest 204 235 16,100  Level Kansas City Center
01:02PM 36.6183 -96.8056 334° Northwest 205 236 16,100  Level Kansas City Center
01:03PM 36.6717 -96.8372 335° Northwest 209 241 16,100  Level Kansas City Center
01:04PM 36.7367 -96.8739 336° Northwest 212 244 16,100  Level Kansas City Center
01:05PM 36.7914 -96.9047 336° Northwest 214 246 16,100 -290 Level Kansas City Center
01:06PM 36.8433 -96.9389 332° Northwest 212 244 15,500 -826 Descending Kansas City Center
01:07PM 36.8881 -96.9672 333° Northwest 217 250 14,600 -952 Descending Kansas City Center
01:07PM 36.8936 -96.9703 336° Northwest 218 251 14,500 -980 Descending Kansas City Center
01:08PM 36.9350 -96.9936 336° Northwest 222 255 13,800 -1,082 Descending Kansas City Center
01:09PM 36.9625 -97.0058 340° North 222 255 13,400 -885 Descending Kansas City Center
01:09PM 36.9908 -97.0267 330° Northwest 225 259 12,900 -787 Descending Kansas City Center
01:10PM 37.0183 -97.0431 335° Northwest 226 260 12,600 -627 Descending Kansas City Center
01:10PM 37.0497 -97.0672 328° Northwest 222 255 12,200 -689 Descending Kansas City Center
01:11PM 37.0725 -97.0767 342° North 221 254 11,900 -984 Descending Kansas City Center
01:11PM 37.1053 -97.0978 333° Northwest 215 247 11,200 -1,125 Descending Kansas City Center
01:12PM 37.1261 -97.1081 339° North 215 247 10,700 -1,200 Descending Kansas City Center
01:12PM 37.1586 -97.1261 336° Northwest 215 247 10,000 -1,048 Descending Kansas City Center
01:13PM 37.1814 -97.1378 338° Northwest 215 247 9,600 -1,200 Descending Kansas City Center
01:13PM 37.2128 -97.1625 328° Northwest 217 250 8,800 -1,279 Descending Kansas City Center
01:14PM 37.2350 -97.1728 340° North 216 249 8,300 -1,279 Descending Kansas City Center
01:14PM 37.2669 -97.2011 325° Northwest 210 242 7,500 -1,238 Descending Kansas City Center
01:15PM 37.2953 -97.2133 341° North 206 237 7,000 -1,200 Descending Kansas City Center
01:15PM 37.3200 -97.2269 336° Northwest 200 230 6,300 -1,279 Descending Kansas City Center
01:16PM 37.3458 -97.2406 337° Northwest 201 231 5,700 -1,180 Descending Kansas City Center
01:16PM 37.3678 -97.2617 323° Northwest 198 228 5,100 -1,279 Descending Kansas City Center
01:17PM 37.3947 -97.2750 339° North 200 230 4,400 -1,377 Descending Kansas City Center
01:17PM 37.4186 -97.2881 337° Northwest 200 230 3,700 -1,238 Descending Kansas City Center
01:18PM 37.4453 -97.3058 332° Northwest 201 231 3,100 -700 Descending Kansas City Center
01:18PM 37.4644 -97.3258 320° Northwest 194 223 3,000 -98 Descending Kansas City Center
01:19PM 37.4894 -97.3414 334° Northwest 196 226 3,000 98 Level Kansas City Center
01:19PM 37.5078 -97.3611 320° Northwest 184 212 3,100 -95 Climbing Kansas City Center
01:20PM 37.5319 -97.3786 330° Northwest 190 219 2,900 -300 Descending Kansas City Center
01:20PM 37.5533 -97.3964 327° Northwest 192 221 2,800 -290 Descending Kansas City Center
01:21PM 37.5842 -97.4186 330° Northwest 186 214 2,600 -290 Descending Kansas City Center
01:21PM 37.5939 -97.4244 335° Northwest 165 190 2,500 -476 Descending Kansas City Center
01:22PM 37.6208 -97.4333 345° North 156 180 2,100 -700 Descending Kansas City Center
01:22PM 37.6303 -97.4319 North 108 124 1,800 -400 Descending Kansas City Center
01:23PM 37.6511 -97.4317 North 142 163 1,700 -143 Descending Kansas City Center
01:25PM 37.6499 -97.4331 146° Southeast  Level Estimated
01:32PM 37.6499 -97.4331 North  Level Estimated

Login

Don't have an account? Register now (free) for customized features, flight alerts, and more!